sensor_id;sensor_type;location;lat;lon;timestamp;temperature;humidity
9824;DHT22;4951;50.778;7.196;2023-06-22T00:00:45;20.90;99.90
9824;DHT22;4951;50.778;7.196;2023-06-22T00:03:33;20.90;99.90
9824;DHT22;4951;50.778;7.196;2023-06-22T00:06:01;20.90;99.90
9824;DHT22;4951;50.778;7.196;2023-06-22T00:08:53;21.00;99.90
9824;DHT22;4951;50.778;7.196;2023-06-22T00:15:07;21.00;99.90
9824;DHT22;4951;50.778;7.196;2023-06-22T00:17:53;20.90;99.90
9824;DHT22;4951;50.778;7.196;2023-06-22T00:20:27;20.90;99.90
9824;DHT22;4951;50.778;7.196;2023-06-22T00:22:56;20.90;99.90
9824;DHT22;4951;50.778;7.196;2023-06-22T00:25:27;20.90;99.90
9824;DHT22;4951;50.778;7.196;2023-06-22T00:27:57;20.90;99.90
9824;DHT22;4951;50.778;7.196;2023-06-22T00:30:42;20.90;99.90
9824;DHT22;4951;50.778;7.196;2023-06-22T00:33:12;20.90;99.90
9824;DHT22;4951;50.778;7.196;2023-06-22T00:35:45;20.90;99.90
9824;DHT22;4951;50.778;7.196;2023-06-22T00:38:13;20.90;99.90
9824;DHT22;4951;50.778;7.196;2023-06-22T00:40:46;20.90;99.90
9824;DHT22;4951;50.778;7.196;2023-06-22T00:43:21;20.90;99.90
9824;DHT22;4951;50.778;7.196;2023-06-22T00:45:56;21.00;99.90
9824;DHT22;4951;50.778;7.196;2023-06-22T00:48:24;21.00;99.90
9824;DHT22;4951;50.778;7.196;2023-06-22T00:51:03;21.00;99.90
9824;DHT22;4951;50.778;7.196;2023-06-22T00:53:31;20.90;99.90
9824;DHT22;4951;50.778;7.196;2023-06-22T00:56:07;20.90;99.90
9824;DHT22;4951;50.778;7.196;2023-06-22T00:58:36;20.90;99.90
9824;DHT22;4951;50.778;7.196;2023-06-22T01:01:09;20.90;99.90
9824;DHT22;4951;50.778;7.196;2023-06-22T01:03:59;20.90;99.90
9824;DHT22;4951;50.778;7.196;2023-06-22T01:06:52;20.90;99.90
9824;DHT22;4951;50.778;7.196;2023-06-22T01:09:27;20.90;99.90
9824;DHT22;4951;50.778;7.196;2023-06-22T01:12:01;20.90;99.90
9824;DHT22;4951;50.778;7.196;2023-06-22T01:14:40;20.90;99.90
9824;DHT22;4951;50.778;7.196;2023-06-22T01:20:20;20.90;99.90
9824;DHT22;4951;50.778;7.196;2023-06-22T01:23:02;20.90;99.90
9824;DHT22;4951;50.778;7.196;2023-06-22T01:25:39;20.90;99.90
9824;DHT22;4951;50.778;7.196;2023-06-22T01:31:10;20.90;99.90
9824;DHT22;4951;50.778;7.196;2023-06-22T01:33:45;20.90;99.90
9824;DHT22;4951;50.778;7.196;2023-06-22T01:36:28;20.90;99.90
9824;DHT22;4951;50.778;7.196;2023-06-22T01:39:10;20.90;99.90
9824;DHT22;4951;50.778;7.196;2023-06-22T01:41:54;20.90;99.90
9824;DHT22;4951;50.778;7.196;2023-06-22T01:44:27;20.90;99.90
9824;DHT22;4951;50.778;7.196;2023-06-22T01:46:59;20.90;99.90
9824;DHT22;4951;50.778;7.196;2023-06-22T01:49:31;20.90;99.90
9824;DHT22;4951;50.778;7.196;2023-06-22T01:52:21;20.90;99.90
9824;DHT22;4951;50.778;7.196;2023-06-22T01:54:53;20.90;99.90
9824;DHT22;4951;50.778;7.196;2023-06-22T01:57:21;20.90;99.90
9824;DHT22;4951;50.778;7.196;2023-06-22T01:59:56;20.80;99.90
9824;DHT22;4951;50.778;7.196;2023-06-22T02:02:51;20.80;99.90
9824;DHT22;4951;50.778;7.196;2023-06-22T02:05:28;20.70;99.90
9824;DHT22;4951;50.778;7.196;2023-06-22T02:08:09;20.70;99.90
9824;DHT22;4951;50.778;7.196;2023-06-22T02:10:51;20.70;99.90
9824;DHT22;4951;50.778;7.196;2023-06-22T02:13:32;20.60;99.90
9824;DHT22;4951;50.778;7.196;2023-06-22T02:16:03;20.60;1.00
9824;DHT22;4951;50.778;7.196;2023-06-22T02:18:38;20.60;1.00
9824;DHT22;4951;50.778;7.196;2023-06-22T02:21:10;20.50;1.00
9824;DHT22;4951;50.778;7.196;2023-06-22T02:23:38;20.50;1.00
9824;DHT22;4951;50.778;7.196;2023-06-22T02:26:11;20.50;1.00
9824;DHT22;4951;50.778;7.196;2023-06-22T02:28:39;20.50;1.00
9824;DHT22;4951;50.778;7.196;2023-06-22T02:31:12;20.50;1.00
9824;DHT22;4951;50.778;7.196;2023-06-22T02:33:51;20.50;1.00
9824;DHT22;4951;50.778;7.196;2023-06-22T02:36:21;20.50;1.00
9824;DHT22;4951;50.778;7.196;2023-06-22T02:38:48;20.50;1.00
9824;DHT22;4951;50.778;7.196;2023-06-22T02:41:18;20.50;1.00
9824;DHT22;4951;50.778;7.196;2023-06-22T02:43:48;20.50;1.00
9824;DHT22;4951;50.778;7.196;2023-06-22T02:46:23;20.50;1.00
9824;DHT22;4951;50.778;7.196;2023-06-22T02:48:56;20.40;1.00
9824;DHT22;4951;50.778;7.196;2023-06-22T02:51:33;20.40;1.00
9824;DHT22;4951;50.778;7.196;2023-06-22T02:54:02;20.50;1.00
9824;DHT22;4951;50.778;7.196;2023-06-22T02:56:39;20.50;1.00
9824;DHT22;4951;50.778;7.196;2023-06-22T02:59:10;20.40;1.00
9824;DHT22;4951;50.778;7.196;2023-06-22T03:01:51;20.50;1.00
9824;DHT22;4951;50.778;7.196;2023-06-22T03:04:47;20.40;1.00
9824;DHT22;4951;50.778;7.196;2023-06-22T03:07:43;20.40;1.00
9824;DHT22;4951;50.778;7.196;2023-06-22T03:10:16;20.40;1.00
9824;DHT22;4951;50.778;7.196;2023-06-22T03:13:01;20.40;1.00
9824;DHT22;4951;50.778;7.196;2023-06-22T03:15:30;20.40;1.00
9824;DHT22;4951;50.778;7.196;2023-06-22T03:18:05;20.40;1.00
9824;DHT22;4951;50.778;7.196;2023-06-22T03:20:35;20.30;1.00
9824;DHT22;4951;50.778;7.196;2023-06-22T03:23:10;20.30;1.00
9824;DHT22;4951;50.778;7.196;2023-06-22T03:25:53;20.40;1.00
9824;DHT22;4951;50.778;7.196;2023-06-22T03:28:25;20.30;1.00
9824;DHT22;4951;50.778;7.196;2023-06-22T03:31:09;20.40;1.00
9824;DHT22;4951;50.778;7.196;2023-06-22T03:34:18;20.40;1.00
9824;DHT22;4951;50.778;7.196;2023-06-22T03:37:02;20.40;1.00
9824;DHT22;4951;50.778;7.196;2023-06-22T03:39:33;20.40;1.00
9824;DHT22;4951;50.778;7.196;2023-06-22T03:42:08;20.40;1.00
9824;DHT22;4951;50.778;7.196;2023-06-22T03:44:55;20.40;1.00
9824;DHT22;4951;50.778;7.196;2023-06-22T03:47:32;20.40;1.00
9824;DHT22;4951;50.778;7.196;2023-06-22T03:50:11;20.40;1.00
9824;DHT22;4951;50.778;7.196;2023-06-22T03:52:45;20.40;1.00
9824;DHT22;4951;50.778;7.196;2023-06-22T03:55:27;20.40;1.00
9824;DHT22;4951;50.778;7.196;2023-06-22T03:58:03;20.40;1.00
9824;DHT22;4951;50.778;7.196;2023-06-22T04:00:44;20.40;1.00
9824;DHT22;4951;50.778;7.196;2023-06-22T04:03:45;20.40;1.00
9824;DHT22;4951;50.778;7.196;2023-06-22T04:06:57;20.40;1.00
9824;DHT22;4951;50.778;7.196;2023-06-22T04:09:34;20.40;1.00
9824;DHT22;4951;50.778;7.196;2023-06-22T04:12:13;20.40;1.00
9824;DHT22;4951;50.778;7.196;2023-06-22T04:14:42;20.30;1.00
9824;DHT22;4951;50.778;7.196;2023-06-22T04:17:10;20.30;1.00
9824;DHT22;4951;50.778;7.196;2023-06-22T04:19:41;20.30;1.00
9824;DHT22;4951;50.778;7.196;2023-06-22T04:22:08;20.30;1.00
9824;DHT22;4951;50.778;7.196;2023-06-22T04:24:38;20.30;1.00
9824;DHT22;4951;50.778;7.196;2023-06-22T04:27:08;20.30;1.00
9824;DHT22;4951;50.778;7.196;2023-06-22T04:29:39;20.20;1.00
9824;DHT22;4951;50.778;7.196;2023-06-22T04:32:18;20.30;1.00
9824;DHT22;4951;50.778;7.196;2023-06-22T04:34:49;20.30;1.00
9824;DHT22;4951;50.778;7.196;2023-06-22T04:37:22;20.30;1.00
9824;DHT22;4951;50.778;7.196;2023-06-22T04:40:00;20.30;1.00
9824;DHT22;4951;50.778;7.196;2023-06-22T04:42:30;20.30;1.00
9824;DHT22;4951;50.778;7.196;2023-06-22T04:44:59;20.40;1.00
9824;DHT22;4951;50.778;7.196;2023-06-22T04:47:29;20.40;1.00
9824;DHT22;4951;50.778;7.196;2023-06-22T04:50:02;20.40;1.00
9824;DHT22;4951;50.778;7.196;2023-06-22T04:52:32;20.40;1.00
9824;DHT22;4951;50.778;7.196;2023-06-22T04:55:06;20.40;1.00
9824;DHT22;4951;50.778;7.196;2023-06-22T04:57:40;20.40;1.00
9824;DHT22;4951;50.778;7.196;2023-06-22T05:00:26;20.50;1.00
9824;DHT22;4951;50.778;7.196;2023-06-22T05:03:05;20.50;1.00
9824;DHT22;4951;50.778;7.196;2023-06-22T05:05:51;20.50;1.00
9824;DHT22;4951;50.778;7.196;2023-06-22T05:08:25;20.60;1.00
9824;DHT22;4951;50.778;7.196;2023-06-22T05:11:23;20.60;1.00
9824;DHT22;4951;50.778;7.196;2023-06-22T05:14:06;20.60;1.00
9824;DHT22;4951;50.778;7.196;2023-06-22T05:16:33;20.70;1.00
9824;DHT22;4951;50.778;7.196;2023-06-22T05:19:01;20.70;1.00
9824;DHT22;4951;50.778;7.196;2023-06-22T05:22:01;20.80;1.00
9824;DHT22;4951;50.778;7.196;2023-06-22T05:24:29;20.90;1.00
9824;DHT22;4951;50.778;7.196;2023-06-22T05:27:14;21.00;1.00
9824;DHT22;4951;50.778;7.196;2023-06-22T05:29:50;21.10;1.00
9824;DHT22;4951;50.778;7.196;2023-06-22T05:32:52;21.20;1.00
9824;DHT22;4951;50.778;7.196;2023-06-22T05:35:30;21.40;1.00
9824;DHT22;4951;50.778;7.196;2023-06-22T05:38:27;21.50;1.00
9824;DHT22;4951;50.778;7.196;2023-06-22T05:41:10;21.60;1.00
9824;DHT22;4951;50.778;7.196;2023-06-22T05:43:44;21.80;1.00
9824;DHT22;4951;50.778;7.196;2023-06-22T05:46:13;21.90;1.00
9824;DHT22;4951;50.778;7.196;2023-06-22T05:48:41;22.00;1.00
9824;DHT22;4951;50.778;7.196;2023-06-22T05:51:21;22.20;1.00
9824;DHT22;4951;50.778;7.196;2023-06-22T05:53:48;22.30;1.00
9824;DHT22;4951;50.778;7.196;2023-06-22T05:56:20;22.40;1.00
9824;DHT22;4951;50.778;7.196;2023-06-22T05:59:08;22.60;1.00
9824;DHT22;4951;50.778;7.196;2023-06-22T06:04:23;22.80;1.00
9824;DHT22;4951;50.778;7.196;2023-06-22T06:06:51;22.80;1.00
9824;DHT22;4951;50.778;7.196;2023-06-22T06:09:20;22.80;1.00
9824;DHT22;4951;50.778;7.196;2023-06-22T06:12:11;22.80;1.00
9824;DHT22;4951;50.778;7.196;2023-06-22T06:14:39;22.70;1.00
9824;DHT22;4951;50.778;7.196;2023-06-22T06:17:18;22.80;1.00
9824;DHT22;4951;50.778;7.196;2023-06-22T06:19:45;22.80;1.00
9824;DHT22;4951;50.778;7.196;2023-06-22T06:22:29;22.80;1.00
9824;DHT22;4951;50.778;7.196;2023-06-22T06:25:09;22.90;99.90
9824;DHT22;4951;50.778;7.196;2023-06-22T06:27:42;23.00;99.90
9824;DHT22;4951;50.778;7.196;2023-06-22T06:30:13;23.10;99.90
9824;DHT22;4951;50.778;7.196;2023-06-22T06:32:44;23.10;99.90
9824;DHT22;4951;50.778;7.196;2023-06-22T06:35:17;23.10;99.90
9824;DHT22;4951;50.778;7.196;2023-06-22T06:37:51;23.10;99.90
9824;DHT22;4951;50.778;7.196;2023-06-22T06:40:30;23.10;99.90
9824;DHT22;4951;50.778;7.196;2023-06-22T06:43:17;23.10;99.90
9824;DHT22;4951;50.778;7.196;2023-06-22T06:45:49;23.10;99.90
9824;DHT22;4951;50.778;7.196;2023-06-22T06:48:32;23.10;99.90
9824;DHT22;4951;50.778;7.196;2023-06-22T06:51:25;23.10;99.90
9824;DHT22;4951;50.778;7.196;2023-06-22T06:57:06;23.30;99.90
9824;DHT22;4951;50.778;7.196;2023-06-22T06:59:43;23.40;99.90
9824;DHT22;4951;50.778;7.196;2023-06-22T07:02:31;23.50;99.90
9824;DHT22;4951;50.778;7.196;2023-06-22T07:05:13;23.70;99.90
9824;DHT22;4951;50.778;7.196;2023-06-22T07:08:02;23.80;99.90
9824;DHT22;4951;50.778;7.196;2023-06-22T07:11:30;24.00;25.40
9824;DHT22;4951;50.778;7.196;2023-06-22T07:14:02;24.00;1.00
9824;DHT22;4951;50.778;7.196;2023-06-22T07:24:01;24.30;1.00
9824;DHT22;4951;50.778;7.196;2023-06-22T07:27:23;24.30;1.00
9824;DHT22;4951;50.778;7.196;2023-06-22T07:31:08;24.40;99.90
9824;DHT22;4951;50.778;7.196;2023-06-22T07:33:50;24.50;99.90
9824;DHT22;4951;50.778;7.196;2023-06-22T07:37:11;24.50;53.70
9824;DHT22;4951;50.778;7.196;2023-06-22T07:47:42;24.80;1.00
9824;DHT22;4951;50.778;7.196;2023-06-22T07:50:47;24.80;1.00
9824;DHT22;4951;50.778;7.196;2023-06-22T07:54:20;24.80;1.00
9824;DHT22;4951;50.778;7.196;2023-06-22T07:56:56;24.80;99.90
9824;DHT22;4951;50.778;7.196;2023-06-22T07:59:45;24.80;99.90
9824;DHT22;4951;50.778;7.196;2023-06-22T08:02:21;24.80;1.00
9824;DHT22;4951;50.778;7.196;2023-06-22T08:05:25;24.80;99.90
9824;DHT22;4951;50.778;7.196;2023-06-22T08:08:01;24.70;1.00
9824;DHT22;4951;50.778;7.196;2023-06-22T08:10:37;24.60;1.00
9824;DHT22;4951;50.778;7.196;2023-06-22T08:16:53;24.70;1.00
9824;DHT22;4951;50.778;7.196;2023-06-22T08:19:31;24.80;1.00
9824;DHT22;4951;50.778;7.196;2023-06-22T08:22:16;24.80;1.00
9824;DHT22;4951;50.778;7.196;2023-06-22T08:24:54;24.90;1.00
9824;DHT22;4951;50.778;7.196;2023-06-22T08:27:36;25.00;99.90
9824;DHT22;4951;50.778;7.196;2023-06-22T08:30:50;25.10;99.90
9824;DHT22;4951;50.778;7.196;2023-06-22T08:33:46;25.20;1.00
9824;DHT22;4951;50.778;7.196;2023-06-22T08:36:38;25.30;1.00
9824;DHT22;4951;50.778;7.196;2023-06-22T08:39:32;25.50;99.90
9824;DHT22;4951;50.778;7.196;2023-06-22T08:45:00;25.70;99.90
9824;DHT22;4951;50.778;7.196;2023-06-22T08:47:35;25.80;1.00
9824;DHT22;4951;50.778;7.196;2023-06-22T08:50:31;25.90;1.00
9824;DHT22;4951;50.778;7.196;2023-06-22T08:53:07;26.10;1.00
9824;DHT22;4951;50.778;7.196;2023-06-22T08:55:44;26.30;1.00
9824;DHT22;4951;50.778;7.196;2023-06-22T08:58:13;26.50;1.00
9824;DHT22;4951;50.778;7.196;2023-06-22T09:00:58;26.60;1.00
9824;DHT22;4951;50.778;7.196;2023-06-22T09:03:38;26.80;99.90
9824;DHT22;4951;50.778;7.196;2023-06-22T09:06:10;26.90;1.00
9824;DHT22;4951;50.778;7.196;2023-06-22T09:08:50;27.00;99.90
9824;DHT22;4951;50.778;7.196;2023-06-22T09:11:29;27.20;1.00
9824;DHT22;4951;50.778;7.196;2023-06-22T09:14:12;27.30;14.80
9824;DHT22;4951;50.778;7.196;2023-06-22T09:17:12;27.40;1.00
9824;DHT22;4951;50.778;7.196;2023-06-22T09:19:55;27.50;1.00
9824;DHT22;4951;50.778;7.196;2023-06-22T09:22:52;27.70;60.50
9824;DHT22;4951;50.778;7.196;2023-06-22T09:25:47;27.70;1.00
9824;DHT22;4951;50.778;7.196;2023-06-22T09:38:08;28.10;1.00
9824;DHT22;4951;50.778;7.196;2023-06-22T09:41:11;28.10;1.00
9824;DHT22;4951;50.778;7.196;2023-06-22T09:44:58;28.20;1.00
9824;DHT22;4951;50.778;7.196;2023-06-22T09:48:09;28.30;99.90
9824;DHT22;4951;50.778;7.196;2023-06-22T09:51:00;28.50;99.90
9824;DHT22;4951;50.778;7.196;2023-06-22T09:57:41;28.40;5.70
9824;DHT22;4951;50.778;7.196;2023-06-22T10:00:27;28.30;1.00
9824;DHT22;4951;50.778;7.196;2023-06-22T10:03:06;28.10;9.60
9824;DHT22;4951;50.778;7.196;2023-06-22T10:05:34;27.80;1.00
9824;DHT22;4951;50.778;7.196;2023-06-22T10:09:25;27.60;98.10
9824;DHT22;4951;50.778;7.196;2023-06-22T10:16:54;27.10;99.90
9824;DHT22;4951;50.778;7.196;2023-06-22T10:19:59;27.00;1.00
9824;DHT22;4951;50.778;7.196;2023-06-22T10:22:58;26.80;1.00
9824;DHT22;4951;50.778;7.196;2023-06-22T10:30:05;26.60;99.90
9824;DHT22;4951;50.778;7.196;2023-06-22T10:33:00;26.50;1.00
9824;DHT22;4951;50.778;7.196;2023-06-22T10:36:26;26.30;1.00
9824;DHT22;4951;50.778;7.196;2023-06-22T10:44:05;25.90;1.00
9824;DHT22;4951;50.778;7.196;2023-06-22T10:56:23;24.50;1.00
9824;DHT22;4951;50.778;7.196;2023-06-22T11:00:29;24.10;99.90
9824;DHT22;4951;50.778;7.196;2023-06-22T11:03:27;23.80;99.90
9824;DHT22;4951;50.778;7.196;2023-06-22T11:06:37;23.40;1.00
9824;DHT22;4951;50.778;7.196;2023-06-22T11:10:15;23.00;1.00
9824;DHT22;4951;50.778;7.196;2023-06-22T11:13:22;22.50;7.10
9824;DHT22;4951;50.778;7.196;2023-06-22T11:16:58;22.30;99.90
9824;DHT22;4951;50.778;7.196;2023-06-22T11:19:47;22.20;99.90
9824;DHT22;4951;50.778;7.196;2023-06-22T11:23:24;21.80;99.90
9824;DHT22;4951;50.778;7.196;2023-06-22T11:26:05;21.50;99.90
9824;DHT22;4951;50.778;7.196;2023-06-22T11:29:00;21.40;99.90
9824;DHT22;4951;50.778;7.196;2023-06-22T11:31:45;21.30;99.90
9824;DHT22;4951;50.778;7.196;2023-06-22T11:34:59;21.30;99.90
9824;DHT22;4951;50.778;7.196;2023-06-22T11:41:47;21.40;99.90
9824;DHT22;4951;50.778;7.196;2023-06-22T11:48:36;22.10;99.90
9824;DHT22;4951;50.778;7.196;2023-06-22T11:51:38;22.60;99.90
9824;DHT22;4951;50.778;7.196;2023-06-22T11:55:30;23.00;99.90
9824;DHT22;4951;50.778;7.196;2023-06-22T11:58:43;23.30;99.90
9824;DHT22;4951;50.778;7.196;2023-06-22T12:01:33;23.50;99.90
9824;DHT22;4951;50.778;7.196;2023-06-22T12:04:49;23.60;99.90
9824;DHT22;4951;50.778;7.196;2023-06-22T12:08:00;23.60;99.90
9824;DHT22;4951;50.778;7.196;2023-06-22T12:14:22;23.60;99.90
9824;DHT22;4951;50.778;7.196;2023-06-22T12:20:51;23.50;99.90
9824;DHT22;4951;50.778;7.196;2023-06-22T12:27:44;23.20;99.90
9824;DHT22;4951;50.778;7.196;2023-06-22T12:31:35;23.10;99.90
9824;DHT22;4951;50.778;7.196;2023-06-22T12:34:53;23.10;99.90
9824;DHT22;4951;50.778;7.196;2023-06-22T12:37:54;23.20;99.90
9824;DHT22;4951;50.778;7.196;2023-06-22T12:40:52;23.50;99.90
9824;DHT22;4951;50.778;7.196;2023-06-22T12:43:34;23.80;99.90
9824;DHT22;4951;50.778;7.196;2023-06-22T12:49:57;24.50;99.90
9824;DHT22;4951;50.778;7.196;2023-06-22T12:52:40;24.70;99.90
9824;DHT22;4951;50.778;7.196;2023-06-22T12:55:21;24.80;93.80
9824;DHT22;4951;50.778;7.196;2023-06-22T12:59:08;24.80;45.30
9824;DHT22;4951;50.778;7.196;2023-06-22T13:05:14;25.20;35.40
9824;DHT22;4951;50.778;7.196;2023-06-22T13:08:38;25.40;1.00
9824;DHT22;4951;50.778;7.196;2023-06-22T13:11:31;25.50;1.00
9824;DHT22;4951;50.778;7.196;2023-06-22T13:14:26;25.60;1.00
9824;DHT22;4951;50.778;7.196;2023-06-22T13:17:11;25.80;1.00
9824;DHT22;4951;50.778;7.196;2023-06-22T13:20:25;26.00;1.00
9824;DHT22;4951;50.778;7.196;2023-06-22T13:23:22;26.20;1.00
9824;DHT22;4951;50.778;7.196;2023-06-22T13:26:29;26.40;1.00
9824;DHT22;4951;50.778;7.196;2023-06-22T13:29:25;26.60;1.00
9824;DHT22;4951;50.778;7.196;2023-06-22T13:32:37;26.80;1.00
9824;DHT22;4951;50.778;7.196;2023-06-22T13:40:39;27.20;1.00
9824;DHT22;4951;50.778;7.196;2023-06-22T13:44:25;27.20;99.90
9824;DHT22;4951;50.778;7.196;2023-06-22T13:47:35;27.60;99.90
9824;DHT22;4951;50.778;7.196;2023-06-22T13:54:30;28.40;99.90
9824;DHT22;4951;50.778;7.196;2023-06-22T14:05:09;29.60;1.00
9824;DHT22;4951;50.778;7.196;2023-06-22T14:08:11;29.80;99.90
9824;DHT22;4951;50.778;7.196;2023-06-22T14:11:14;29.70;99.90
9824;DHT22;4951;50.778;7.196;2023-06-22T14:17:57;28.80;99.90
9824;DHT22;4951;50.778;7.196;2023-06-22T14:21:33;28.10;1.00
9824;DHT22;4951;50.778;7.196;2023-06-22T14:27:04;27.50;1.00
9824;DHT22;4951;50.778;7.196;2023-06-22T14:37:10;26.50;43.60
9824;DHT22;4951;50.778;7.196;2023-06-22T14:40:59;26.00;99.90
9824;DHT22;4951;50.778;7.196;2023-06-22T14:44:33;25.30;99.90
9824;DHT22;4951;50.778;7.196;2023-06-22T14:55:54;22.90;1.00
9824;DHT22;4951;50.778;7.196;2023-06-22T15:02:07;22.40;1.00
9824;DHT22;4951;50.778;7.196;2023-06-22T15:04:52;22.30;64.00
9824;DHT22;4951;50.778;7.196;2023-06-22T15:08:37;22.30;99.90
9824;DHT22;4951;50.778;7.196;2023-06-22T15:11:54;22.20;99.90
9824;DHT22;4951;50.778;7.196;2023-06-22T15:14:56;22.00;99.90
9824;DHT22;4951;50.778;7.196;2023-06-22T15:18:15;21.90;99.90
9824;DHT22;4951;50.778;7.196;2023-06-22T15:21:39;21.70;99.90
9824;DHT22;4951;50.778;7.196;2023-06-22T15:24:22;21.60;99.90
9824;DHT22;4951;50.778;7.196;2023-06-22T15:30:19;21.30;99.90
9824;DHT22;4951;50.778;7.196;2023-06-22T15:33:38;21.20;99.90
9824;DHT22;4951;50.778;7.196;2023-06-22T15:36:40;21.10;99.90
9824;DHT22;4951;50.778;7.196;2023-06-22T15:39:23;21.10;99.90
9824;DHT22;4951;50.778;7.196;2023-06-22T15:46:26;21.20;99.90
9824;DHT22;4951;50.778;7.196;2023-06-22T15:50:19;21.20;99.90
9824;DHT22;4951;50.778;7.196;2023-06-22T15:53:40;21.30;99.90
9824;DHT22;4951;50.778;7.196;2023-06-22T15:56:51;21.30;99.90
9824;DHT22;4951;50.778;7.196;2023-06-22T15:59:25;21.30;99.90
9824;DHT22;4951;50.778;7.196;2023-06-22T16:02:26;21.30;99.90
9824;DHT22;4951;50.778;7.196;2023-06-22T16:05:38;21.40;99.90
9824;DHT22;4951;50.778;7.196;2023-06-22T16:08:17;21.40;99.90
9824;DHT22;4951;50.778;7.196;2023-06-22T16:10:46;21.40;99.90
9824;DHT22;4951;50.778;7.196;2023-06-22T16:13:39;21.50;99.90
9824;DHT22;4951;50.778;7.196;2023-06-22T16:16:33;21.50;99.90
9824;DHT22;4951;50.778;7.196;2023-06-22T16:20:38;21.60;99.90
9824;DHT22;4951;50.778;7.196;2023-06-22T16:24:04;21.60;99.90
9824;DHT22;4951;50.778;7.196;2023-06-22T16:27:09;21.60;99.90
9824;DHT22;4951;50.778;7.196;2023-06-22T16:35:37;21.50;99.90
9824;DHT22;4951;50.778;7.196;2023-06-22T16:54:43;21.50;99.90
9824;DHT22;4951;50.778;7.196;2023-06-22T17:07:18;21.60;99.90
9824;DHT22;4951;50.778;7.196;2023-06-22T17:15:34;21.80;99.90
9824;DHT22;4951;50.778;7.196;2023-06-22T17:18:58;21.90;99.90
9824;DHT22;4951;50.778;7.196;2023-06-22T17:23:22;22.00;99.90
9824;DHT22;4951;50.778;7.196;2023-06-22T17:29:51;21.90;99.90
9824;DHT22;4951;50.778;7.196;2023-06-22T17:46:24;21.90;99.90
9824;DHT22;4951;50.778;7.196;2023-06-22T17:49:06;21.90;99.90
9824;DHT22;4951;50.778;7.196;2023-06-22T17:52:54;22.00;99.90
9824;DHT22;4951;50.778;7.196;2023-06-22T17:56:23;21.90;99.90
9824;DHT22;4951;50.778;7.196;2023-06-22T18:06:50;21.80;99.90
9824;DHT22;4951;50.778;7.196;2023-06-22T18:09:48;21.90;99.90
9824;DHT22;4951;50.778;7.196;2023-06-22T18:16:54;21.90;99.90
9824;DHT22;4951;50.778;7.196;2023-06-22T18:22:25;21.90;99.90
9824;DHT22;4951;50.778;7.196;2023-06-22T18:24:59;22.00;99.90
9824;DHT22;4951;50.778;7.196;2023-06-22T18:27:59;22.00;99.90
9824;DHT22;4951;50.778;7.196;2023-06-22T18:30:54;22.10;99.90
9824;DHT22;4951;50.778;7.196;2023-06-22T18:33:38;22.10;99.90
9824;DHT22;4951;50.778;7.196;2023-06-22T18:36:55;22.10;99.90
9824;DHT22;4951;50.778;7.196;2023-06-22T18:40:06;22.00;99.90
9824;DHT22;4951;50.778;7.196;2023-06-22T18:43:42;22.00;99.90
9824;DHT22;4951;50.778;7.196;2023-06-22T18:50:40;21.90;99.90
9824;DHT22;4951;50.778;7.196;2023-06-22T18:53:49;21.90;99.90
9824;DHT22;4951;50.778;7.196;2023-06-22T18:57:12;21.80;99.90
9824;DHT22;4951;50.778;7.196;2023-06-22T19:01:29;21.80;99.90
9824;DHT22;4951;50.778;7.196;2023-06-22T19:04:34;21.80;99.90
9824;DHT22;4951;50.778;7.196;2023-06-22T19:08:05;21.70;99.90
9824;DHT22;4951;50.778;7.196;2023-06-22T19:11:14;21.60;99.90
9824;DHT22;4951;50.778;7.196;2023-06-22T19:13:50;21.40;99.90
9824;DHT22;4951;50.778;7.196;2023-06-22T19:16:37;21.30;99.90
9824;DHT22;4951;50.778;7.196;2023-06-22T19:22:52;21.00;99.90
9824;DHT22;4951;50.778;7.196;2023-06-22T19:26:35;20.80;99.90
9824;DHT22;4951;50.778;7.196;2023-06-22T19:37:16;20.30;99.90
9824;DHT22;4951;50.778;7.196;2023-06-22T19:41:01;20.00;99.90
9824;DHT22;4951;50.778;7.196;2023-06-22T19:43:51;19.90;99.90
9824;DHT22;4951;50.778;7.196;2023-06-22T19:50:42;19.60;99.90
9824;DHT22;4951;50.778;7.196;2023-06-22T19:54:18;19.50;99.90
9824;DHT22;4951;50.778;7.196;2023-06-22T19:57:12;19.40;99.90
9824;DHT22;4951;50.778;7.196;2023-06-22T20:04:56;19.20;99.90
9824;DHT22;4951;50.778;7.196;2023-06-22T20:08:54;19.00;99.90
9824;DHT22;4951;50.778;7.196;2023-06-22T20:12:36;18.90;99.90
9824;DHT22;4951;50.778;7.196;2023-06-22T20:19:58;18.70;99.90
9824;DHT22;4951;50.778;7.196;2023-06-22T20:23:56;18.60;99.90
9824;DHT22;4951;50.778;7.196;2023-06-22T20:34:32;18.30;99.90
9824;DHT22;4951;50.778;7.196;2023-06-22T20:36:09;18.10;99.90
9824;DHT22;4951;50.778;7.196;2023-06-22T20:47:00;17.60;99.90
9824;DHT22;4951;50.778;7.196;2023-06-22T20:57:19;17.40;99.90
9824;DHT22;4951;50.778;7.196;2023-06-22T21:02:01;17.40;99.90
9824;DHT22;4951;50.778;7.196;2023-06-22T21:08:53;17.30;99.90
9824;DHT22;4951;50.778;7.196;2023-06-22T21:11:58;17.40;99.90
9824;DHT22;4951;50.778;7.196;2023-06-22T21:15:25;17.30;99.90
9824;DHT22;4951;50.778;7.196;2023-06-22T21:23:12;17.40;99.90
9824;DHT22;4951;50.778;7.196;2023-06-22T21:26:27;17.40;99.90
9824;DHT22;4951;50.778;7.196;2023-06-22T21:34:25;17.50;99.90
9824;DHT22;4951;50.778;7.196;2023-06-22T21:37:59;17.50;99.90
9824;DHT22;4951;50.778;7.196;2023-06-22T21:41:04;17.50;99.90
9824;DHT22;4951;50.778;7.196;2023-06-22T21:52:18;17.40;99.90
9824;DHT22;4951;50.778;7.196;2023-06-22T21:54:51;17.40;99.90
9824;DHT22;4951;50.778;7.196;2023-06-22T22:00:42;17.30;99.90
9824;DHT22;4951;50.778;7.196;2023-06-22T22:03:52;17.30;99.90
9824;DHT22;4951;50.778;7.196;2023-06-22T22:07:24;17.30;99.90
9824;DHT22;4951;50.778;7.196;2023-06-22T22:10:26;17.30;99.90
9824;DHT22;4951;50.778;7.196;2023-06-22T22:13:37;17.30;99.90
9824;DHT22;4951;50.778;7.196;2023-06-22T22:16:08;17.30;99.90
9824;DHT22;4951;50.778;7.196;2023-06-22T22:18:36;17.40;99.90
9824;DHT22;4951;50.778;7.196;2023-06-22T22:21:23;17.40;99.90
9824;DHT22;4951;50.778;7.196;2023-06-22T22:27:38;17.40;99.90
9824;DHT22;4951;50.778;7.196;2023-06-22T22:30:35;17.40;99.90
9824;DHT22;4951;50.778;7.196;2023-06-22T22:33:40;17.50;99.90
9824;DHT22;4951;50.778;7.196;2023-06-22T22:36:18;17.50;99.90
9824;DHT22;4951;50.778;7.196;2023-06-22T22:38:46;17.50;99.90
9824;DHT22;4951;50.778;7.196;2023-06-22T22:41:15;17.50;99.90
9824;DHT22;4951;50.778;7.196;2023-06-22T22:47:06;17.60;99.90
9824;DHT22;4951;50.778;7.196;2023-06-22T22:49:57;17.70;99.90
9824;DHT22;4951;50.778;7.196;2023-06-22T22:52:25;17.70;99.90
9824;DHT22;4951;50.778;7.196;2023-06-22T22:54:54;17.70;99.90
9824;DHT22;4951;50.778;7.196;2023-06-22T22:57:37;17.70;99.90
9824;DHT22;4951;50.778;7.196;2023-06-22T23:03:47;17.80;99.90
9824;DHT22;4951;50.778;7.196;2023-06-22T23:06:33;17.80;99.90
9824;DHT22;4951;50.778;7.196;2023-06-22T23:09:17;17.80;99.90
9824;DHT22;4951;50.778;7.196;2023-06-22T23:11:59;17.80;99.90
9824;DHT22;4951;50.778;7.196;2023-06-22T23:15:29;17.80;99.90
9824;DHT22;4951;50.778;7.196;2023-06-22T23:18:37;17.80;99.90
9824;DHT22;4951;50.778;7.196;2023-06-22T23:49:57;17.40;99.90
9824;DHT22;4951;50.778;7.196;2023-06-22T23:52:27;17.30;99.90
9824;DHT22;4951;50.778;7.196;2023-06-22T23:56:40;17.40;99.90
